sensor_id;sensor_type;location;lat;lon;timestamp;P1;durP1;ratioP1;P2;durP2;ratioP2
58366;SDS011;57745;42.524;12.052;2022-10-16T00:01:51;5.55;;;3.95;;
58366;SDS011;57745;42.524;12.052;2022-10-16T00:04:16;7.50;;;4.82;;
58366;SDS011;57745;42.524;12.052;2022-10-16T00:06:41;6.30;;;4.85;;
58366;SDS011;57745;42.524;12.052;2022-10-16T00:09:07;5.00;;;4.30;;
58366;SDS011;57745;42.524;12.052;2022-10-16T00:11:33;8.07;;;4.53;;
58366;SDS011;57745;42.524;12.052;2022-10-16T00:14:06;5.55;;;4.50;;
58366;SDS011;57745;42.524;12.052;2022-10-16T00:16:35;6.80;;;4.32;;
58366;SDS011;57745;42.524;12.052;2022-10-16T00:19:00;7.32;;;4.50;;
58366;SDS011;57745;42.524;12.052;2022-10-16T00:21:27;8.88;;;4.57;;
58366;SDS011;57745;42.524;12.052;2022-10-16T00:23:55;6.45;;;4.90;;
58366;SDS011;57745;42.524;12.052;2022-10-16T00:26:24;6.05;;;4.38;;
58366;SDS011;57745;42.524;12.052;2022-10-16T00:28:50;6.60;;;4.43;;
58366;SDS011;57745;42.524;12.052;2022-10-16T00:31:17;5.18;;;4.32;;
58366;SDS011;57745;42.524;12.052;2022-10-16T00:33:43;7.60;;;4.85;;
58366;SDS011;57745;42.524;12.052;2022-10-16T00:36:10;5.88;;;4.70;;
58366;SDS011;57745;42.524;12.052;2022-10-16T00:38:37;5.43;;;4.80;;
58366;SDS011;57745;42.524;12.052;2022-10-16T00:41:03;7.45;;;5.10;;
58366;SDS011;57745;42.524;12.052;2022-10-16T00:46:16;9.45;;;4.53;;
58366;SDS011;57745;42.524;12.052;2022-10-16T00:49:05;6.28;;;4.82;;
58366;SDS011;57745;42.524;12.052;2022-10-16T00:51:56;6.15;;;4.57;;
58366;SDS011;57745;42.524;12.052;2022-10-16T00:54:22;7.93;;;5.25;;
58366;SDS011;57745;42.524;12.052;2022-10-16T00:56:51;5.25;;;4.53;;
58366;SDS011;57745;42.524;12.052;2022-10-16T00:59:20;7.95;;;4.53;;
58366;SDS011;57745;42.524;12.052;2022-10-16T01:01:49;6.38;;;5.00;;
58366;SDS011;57745;42.524;12.052;2022-10-16T01:04:16;6.72;;;4.50;;
58366;SDS011;57745;42.524;12.052;2022-10-16T01:06:44;7.10;;;4.57;;
58366;SDS011;57745;42.524;12.052;2022-10-16T01:11:54;5.25;;;4.35;;
58366;SDS011;57745;42.524;12.052;2022-10-16T01:17:51;7.47;;;4.82;;
58366;SDS011;57745;42.524;12.052;2022-10-16T01:23:07;7.18;;;5.10;;
58366;SDS011;57745;42.524;12.052;2022-10-16T01:28:39;5.82;;;4.22;;
58366;SDS011;57745;42.524;12.052;2022-10-16T01:31:06;6.80;;;5.03;;
58366;SDS011;57745;42.524;12.052;2022-10-16T01:34:18;6.13;;;4.40;;
58366;SDS011;57745;42.524;12.052;2022-10-16T01:36:35;8.00;;;4.82;;
58366;SDS011;57745;42.524;12.052;2022-10-16T01:39:04;6.75;;;4.45;;
58366;SDS011;57745;42.524;12.052;2022-10-16T01:41:35;5.60;;;4.75;;
58366;SDS011;57745;42.524;12.052;2022-10-16T01:44:05;5.57;;;4.60;;
58366;SDS011;57745;42.524;12.052;2022-10-16T01:46:35;8.05;;;4.95;;
58366;SDS011;57745;42.524;12.052;2022-10-16T01:49:09;5.35;;;4.72;;
58366;SDS011;57745;42.524;12.052;2022-10-16T01:51:37;5.88;;;4.78;;
58366;SDS011;57745;42.524;12.052;2022-10-16T01:54:07;7.10;;;5.10;;
58366;SDS011;57745;42.524;12.052;2022-10-16T01:56:37;7.05;;;5.03;;
58366;SDS011;57745;42.524;12.052;2022-10-16T01:59:15;5.22;;;4.57;;
58366;SDS011;57745;42.524;12.052;2022-10-16T02:01:50;7.63;;;5.03;;
58366;SDS011;57745;42.524;12.052;2022-10-16T02:04:34;8.35;;;5.32;;
58366;SDS011;57745;42.524;12.052;2022-10-16T02:07:05;7.57;;;5.60;;
58366;SDS011;57745;42.524;12.052;2022-10-16T02:09:33;5.82;;;5.05;;
58366;SDS011;57745;42.524;12.052;2022-10-16T02:12:01;7.68;;;5.13;;
58366;SDS011;57745;42.524;12.052;2022-10-16T02:14:36;5.72;;;4.97;;
58366;SDS011;57745;42.524;12.052;2022-10-16T02:17:11;7.10;;;4.88;;
58366;SDS011;57745;42.524;12.052;2022-10-16T02:19:38;6.78;;;5.13;;
58366;SDS011;57745;42.524;12.052;2022-10-16T02:22:04;6.68;;;5.00;;
58366;SDS011;57745;42.524;12.052;2022-10-16T02:24:33;7.45;;;5.03;;
58366;SDS011;57745;42.524;12.052;2022-10-16T02:27:03;7.03;;;5.43;;
58366;SDS011;57745;42.524;12.052;2022-10-16T02:29:36;5.93;;;5.30;;
58366;SDS011;57745;42.524;12.052;2022-10-16T02:32:09;5.90;;;5.28;;
58366;SDS011;57745;42.524;12.052;2022-10-16T02:34:37;6.90;;;5.07;;
58366;SDS011;57745;42.524;12.052;2022-10-16T02:37:04;7.38;;;5.20;;
58366;SDS011;57745;42.524;12.052;2022-10-16T02:39:31;9.32;;;5.10;;
58366;SDS011;57745;42.524;12.052;2022-10-16T02:42:00;7.65;;;5.82;;
58366;SDS011;57745;42.524;12.052;2022-10-16T02:44:26;9.10;;;5.20;;
58366;SDS011;57745;42.524;12.052;2022-10-16T02:46:51;7.47;;;6.07;;
58366;SDS011;57745;42.524;12.052;2022-10-16T02:49:17;6.57;;;4.95;;
58366;SDS011;57745;42.524;12.052;2022-10-16T02:51:43;6.63;;;5.15;;
58366;SDS011;57745;42.524;12.052;2022-10-16T02:54:09;6.10;;;5.10;;
58366;SDS011;57745;42.524;12.052;2022-10-16T02:56:34;6.70;;;5.43;;
58366;SDS011;57745;42.524;12.052;2022-10-16T02:59:01;9.43;;;6.05;;
58366;SDS011;57745;42.524;12.052;2022-10-16T03:01:27;8.63;;;5.88;;
58366;SDS011;57745;42.524;12.052;2022-10-16T03:03:53;6.88;;;5.60;;
58366;SDS011;57745;42.524;12.052;2022-10-16T03:06:18;6.32;;;5.43;;
58366;SDS011;57745;42.524;12.052;2022-10-16T03:08:44;6.18;;;4.90;;
58366;SDS011;57745;42.524;12.052;2022-10-16T03:11:09;7.72;;;5.57;;
58366;SDS011;57745;42.524;12.052;2022-10-16T03:13:35;8.10;;;6.30;;
58366;SDS011;57745;42.524;12.052;2022-10-16T03:16:00;8.43;;;6.07;;
58366;SDS011;57745;42.524;12.052;2022-10-16T03:18:26;6.75;;;5.38;;
58366;SDS011;57745;42.524;12.052;2022-10-16T03:20:51;8.73;;;5.70;;
58366;SDS011;57745;42.524;12.052;2022-10-16T03:23:17;7.35;;;5.85;;
58366;SDS011;57745;42.524;12.052;2022-10-16T03:25:42;9.27;;;5.70;;
58366;SDS011;57745;42.524;12.052;2022-10-16T03:28:08;7.72;;;5.32;;
58366;SDS011;57745;42.524;12.052;2022-10-16T03:30:34;7.32;;;5.30;;
58366;SDS011;57745;42.524;12.052;2022-10-16T03:32:59;6.65;;;5.50;;
58366;SDS011;57745;42.524;12.052;2022-10-16T03:35:25;8.98;;;5.97;;
58366;SDS011;57745;42.524;12.052;2022-10-16T03:37:50;8.13;;;5.70;;
58366;SDS011;57745;42.524;12.052;2022-10-16T03:40:16;7.55;;;5.15;;
58366;SDS011;57745;42.524;12.052;2022-10-16T03:42:42;7.15;;;5.38;;
58366;SDS011;57745;42.524;12.052;2022-10-16T03:45:09;7.68;;;5.45;;
58366;SDS011;57745;42.524;12.052;2022-10-16T03:47:35;6.38;;;5.03;;
58366;SDS011;57745;42.524;12.052;2022-10-16T03:50:02;8.15;;;5.47;;
58366;SDS011;57745;42.524;12.052;2022-10-16T03:52:28;6.18;;;5.40;;
58366;SDS011;57745;42.524;12.052;2022-10-16T03:54:53;7.28;;;5.50;;
58366;SDS011;57745;42.524;12.052;2022-10-16T03:57:19;8.63;;;5.40;;
58366;SDS011;57745;42.524;12.052;2022-10-16T03:59:45;7.05;;;5.68;;
58366;SDS011;57745;42.524;12.052;2022-10-16T04:02:11;6.35;;;5.13;;
58366;SDS011;57745;42.524;12.052;2022-10-16T04:04:37;7.45;;;5.10;;
58366;SDS011;57745;42.524;12.052;2022-10-16T04:07:02;6.00;;;4.90;;
58366;SDS011;57745;42.524;12.052;2022-10-16T04:09:28;7.32;;;5.68;;
58366;SDS011;57745;42.524;12.052;2022-10-16T04:11:54;6.82;;;4.85;;
58366;SDS011;57745;42.524;12.052;2022-10-16T04:14:19;7.00;;;5.60;;
58366;SDS011;57745;42.524;12.052;2022-10-16T04:16:45;7.13;;;5.00;;
58366;SDS011;57745;42.524;12.052;2022-10-16T04:19:10;6.55;;;5.07;;
58366;SDS011;57745;42.524;12.052;2022-10-16T04:21:36;6.90;;;4.75;;
58366;SDS011;57745;42.524;12.052;2022-10-16T04:24:02;5.82;;;4.75;;
58366;SDS011;57745;42.524;12.052;2022-10-16T04:26:28;5.85;;;4.80;;
58366;SDS011;57745;42.524;12.052;2022-10-16T04:28:55;8.10;;;4.85;;
58366;SDS011;57745;42.524;12.052;2022-10-16T04:31:21;5.05;;;4.35;;
58366;SDS011;57745;42.524;12.052;2022-10-16T04:33:47;6.70;;;4.80;;
58366;SDS011;57745;42.524;12.052;2022-10-16T04:36:12;6.88;;;4.80;;
58366;SDS011;57745;42.524;12.052;2022-10-16T04:38:38;5.93;;;5.20;;
58366;SDS011;57745;42.524;12.052;2022-10-16T04:41:04;5.93;;;4.82;;
58366;SDS011;57745;42.524;12.052;2022-10-16T04:43:31;5.95;;;4.90;;
58366;SDS011;57745;42.524;12.052;2022-10-16T04:45:56;6.80;;;4.70;;
58366;SDS011;57745;42.524;12.052;2022-10-16T04:48:22;8.02;;;5.05;;
58366;SDS011;57745;42.524;12.052;2022-10-16T04:50:49;5.50;;;4.65;;
58366;SDS011;57745;42.524;12.052;2022-10-16T04:53:14;6.10;;;4.88;;
58366;SDS011;57745;42.524;12.052;2022-10-16T04:55:41;6.00;;;5.25;;
58366;SDS011;57745;42.524;12.052;2022-10-16T04:58:07;6.68;;;5.40;;
58366;SDS011;57745;42.524;12.052;2022-10-16T05:00:33;6.15;;;4.78;;
58366;SDS011;57745;42.524;12.052;2022-10-16T05:02:59;7.30;;;5.20;;
58366;SDS011;57745;42.524;12.052;2022-10-16T05:05:27;6.97;;;5.25;;
58366;SDS011;57745;42.524;12.052;2022-10-16T05:07:53;8.25;;;4.88;;
58366;SDS011;57745;42.524;12.052;2022-10-16T05:10:19;6.28;;;4.90;;
58366;SDS011;57745;42.524;12.052;2022-10-16T05:12:45;5.95;;;5.10;;
58366;SDS011;57745;42.524;12.052;2022-10-16T05:15:11;6.78;;;4.65;;
58366;SDS011;57745;42.524;12.052;2022-10-16T05:17:37;6.88;;;4.93;;
58366;SDS011;57745;42.524;12.052;2022-10-16T05:20:02;6.80;;;5.00;;
58366;SDS011;57745;42.524;12.052;2022-10-16T05:22:28;6.90;;;4.78;;
58366;SDS011;57745;42.524;12.052;2022-10-16T05:24:54;6.53;;;4.85;;
58366;SDS011;57745;42.524;12.052;2022-10-16T05:27:19;6.30;;;4.88;;
58366;SDS011;57745;42.524;12.052;2022-10-16T05:29:45;6.00;;;4.43;;
58366;SDS011;57745;42.524;12.052;2022-10-16T05:32:12;7.18;;;4.82;;
58366;SDS011;57745;42.524;12.052;2022-10-16T05:34:39;6.55;;;5.72;;
58366;SDS011;57745;42.524;12.052;2022-10-16T05:37:04;5.60;;;4.80;;
58366;SDS011;57745;42.524;12.052;2022-10-16T05:39:30;8.02;;;4.72;;
58366;SDS011;57745;42.524;12.052;2022-10-16T05:41:55;6.28;;;4.82;;
58366;SDS011;57745;42.524;12.052;2022-10-16T05:44:21;6.38;;;4.72;;
58366;SDS011;57745;42.524;12.052;2022-10-16T05:46:46;6.22;;;5.15;;
58366;SDS011;57745;42.524;12.052;2022-10-16T05:49:12;8.93;;;5.43;;
58366;SDS011;57745;42.524;12.052;2022-10-16T05:51:38;6.30;;;4.88;;
58366;SDS011;57745;42.524;12.052;2022-10-16T05:54:04;5.65;;;4.63;;
58366;SDS011;57745;42.524;12.052;2022-10-16T05:56:30;7.22;;;5.05;;
58366;SDS011;57745;42.524;12.052;2022-10-16T05:58:55;7.43;;;5.07;;
58366;SDS011;57745;42.524;12.052;2022-10-16T06:01:20;7.03;;;5.05;;
58366;SDS011;57745;42.524;12.052;2022-10-16T06:03:51;7.53;;;4.75;;
58366;SDS011;57745;42.524;12.052;2022-10-16T06:06:18;7.28;;;5.40;;
58366;SDS011;57745;42.524;12.052;2022-10-16T06:08:49;8.50;;;4.85;;
58366;SDS011;57745;42.524;12.052;2022-10-16T06:11:19;6.35;;;4.45;;
58366;SDS011;57745;42.524;12.052;2022-10-16T06:13:50;5.50;;;4.75;;
58366;SDS011;57745;42.524;12.052;2022-10-16T06:16:16;7.60;;;4.65;;
58366;SDS011;57745;42.524;12.052;2022-10-16T06:18:42;6.45;;;4.93;;
58366;SDS011;57745;42.524;12.052;2022-10-16T06:21:12;6.10;;;4.63;;
58366;SDS011;57745;42.524;12.052;2022-10-16T06:23:41;5.93;;;4.75;;
58366;SDS011;57745;42.524;12.052;2022-10-16T06:26:11;7.68;;;4.97;;
58366;SDS011;57745;42.524;12.052;2022-10-16T06:28:38;5.70;;;4.60;;
58366;SDS011;57745;42.524;12.052;2022-10-16T06:31:04;5.60;;;4.47;;
58366;SDS011;57745;42.524;12.052;2022-10-16T06:33:31;8.88;;;5.68;;
58366;SDS011;57745;42.524;12.052;2022-10-16T06:36:03;8.93;;;5.90;;
58366;SDS011;57745;42.524;12.052;2022-10-16T06:38:30;10.23;;;6.90;;
58366;SDS011;57745;42.524;12.052;2022-10-16T06:40:56;15.05;;;8.43;;
58366;SDS011;57745;42.524;12.052;2022-10-16T06:43:24;16.38;;;10.60;;
58366;SDS011;57745;42.524;12.052;2022-10-16T06:45:53;23.27;;;13.40;;
58366;SDS011;57745;42.524;12.052;2022-10-16T06:48:20;29.58;;;17.10;;
58366;SDS011;57745;42.524;12.052;2022-10-16T06:51:28;29.35;;;18.15;;
58366;SDS011;57745;42.524;12.052;2022-10-16T06:56:20;35.92;;;21.63;;
58366;SDS011;57745;42.524;12.052;2022-10-16T06:58:47;36.95;;;22.35;;
58366;SDS011;57745;42.524;12.052;2022-10-16T07:01:14;41.83;;;24.75;;
58366;SDS011;57745;42.524;12.052;2022-10-16T07:03:40;44.05;;;26.92;;
58366;SDS011;57745;42.524;12.052;2022-10-16T07:06:08;48.42;;;29.25;;
58366;SDS011;57745;42.524;12.052;2022-10-16T07:08:35;48.92;;;28.73;;
58366;SDS011;57745;42.524;12.052;2022-10-16T07:11:03;47.97;;;30.00;;
58366;SDS011;57745;42.524;12.052;2022-10-16T07:13:32;52.60;;;29.23;;
58366;SDS011;57745;42.524;12.052;2022-10-16T07:16:03;42.70;;;27.70;;
58366;SDS011;57745;42.524;12.052;2022-10-16T07:18:33;42.00;;;25.88;;
58366;SDS011;57745;42.524;12.052;2022-10-16T07:21:05;40.97;;;24.85;;
58366;SDS011;57745;42.524;12.052;2022-10-16T07:23:37;34.00;;;22.30;;
58366;SDS011;57745;42.524;12.052;2022-10-16T07:26:03;38.53;;;21.92;;
58366;SDS011;57745;42.524;12.052;2022-10-16T07:28:30;37.75;;;23.63;;
58366;SDS011;57745;42.524;12.052;2022-10-16T07:31:00;37.67;;;22.42;;
58366;SDS011;57745;42.524;12.052;2022-10-16T07:33:30;36.13;;;20.65;;
58366;SDS011;57745;42.524;12.052;2022-10-16T07:35:56;32.55;;;20.15;;
58366;SDS011;57745;42.524;12.052;2022-10-16T07:38:21;32.60;;;18.90;;
58366;SDS011;57745;42.524;12.052;2022-10-16T07:40:47;30.63;;;18.98;;
58366;SDS011;57745;42.524;12.052;2022-10-16T07:43:13;31.50;;;19.25;;
58366;SDS011;57745;42.524;12.052;2022-10-16T07:45:50;27.98;;;17.27;;
58366;SDS011;57745;42.524;12.052;2022-10-16T07:48:16;25.05;;;15.63;;
58366;SDS011;57745;42.524;12.052;2022-10-16T07:50:42;22.70;;;15.52;;
58366;SDS011;57745;42.524;12.052;2022-10-16T07:53:09;24.02;;;15.15;;
58366;SDS011;57745;42.524;12.052;2022-10-16T07:55:35;22.55;;;14.02;;
58366;SDS011;57745;42.524;12.052;2022-10-16T07:58:00;20.45;;;11.93;;
58366;SDS011;57745;42.524;12.052;2022-10-16T08:00:27;20.08;;;13.57;;
58366;SDS011;57745;42.524;12.052;2022-10-16T08:02:53;19.58;;;12.15;;
58366;SDS011;57745;42.524;12.052;2022-10-16T08:05:18;15.30;;;10.60;;
58366;SDS011;57745;42.524;12.052;2022-10-16T08:07:48;16.15;;;10.95;;
58366;SDS011;57745;42.524;12.052;2022-10-16T08:10:18;14.82;;;10.45;;
58366;SDS011;57745;42.524;12.052;2022-10-16T08:12:46;18.42;;;9.82;;
58366;SDS011;57745;42.524;12.052;2022-10-16T08:15:11;14.85;;;8.95;;
58366;SDS011;57745;42.524;12.052;2022-10-16T08:17:37;15.82;;;9.77;;
58366;SDS011;57745;42.524;12.052;2022-10-16T08:20:03;12.05;;;8.48;;
58366;SDS011;57745;42.524;12.052;2022-10-16T08:22:29;14.02;;;8.35;;
58366;SDS011;57745;42.524;12.052;2022-10-16T08:24:55;10.82;;;7.63;;
58366;SDS011;57745;42.524;12.052;2022-10-16T08:27:20;15.07;;;8.40;;
58366;SDS011;57745;42.524;12.052;2022-10-16T08:29:48;12.90;;;7.60;;
58366;SDS011;57745;42.524;12.052;2022-10-16T08:32:13;9.98;;;6.68;;
58366;SDS011;57745;42.524;12.052;2022-10-16T08:34:39;12.00;;;8.13;;
58366;SDS011;57745;42.524;12.052;2022-10-16T08:37:04;11.63;;;7.28;;
58366;SDS011;57745;42.524;12.052;2022-10-16T08:39:41;10.13;;;6.78;;
58366;SDS011;57745;42.524;12.052;2022-10-16T08:47:41;10.73;;;5.75;;
58366;SDS011;57745;42.524;12.052;2022-10-16T08:50:32;10.15;;;6.88;;
58366;SDS011;57745;42.524;12.052;2022-10-16T08:53:03;8.73;;;5.53;;
58366;SDS011;57745;42.524;12.052;2022-10-16T08:55:45;7.65;;;5.32;;
58366;SDS011;57745;42.524;12.052;2022-10-16T08:58:16;9.30;;;5.78;;
58366;SDS011;57745;42.524;12.052;2022-10-16T09:00:45;6.30;;;4.80;;
58366;SDS011;57745;42.524;12.052;2022-10-16T09:06:26;7.32;;;5.07;;
58366;SDS011;57745;42.524;12.052;2022-10-16T09:09:02;7.57;;;4.28;;
58366;SDS011;57745;42.524;12.052;2022-10-16T09:18:00;6.30;;;4.72;;
58366;SDS011;57745;42.524;12.052;2022-10-16T09:25:29;7.72;;;4.43;;
58366;SDS011;57745;42.524;12.052;2022-10-16T09:27:56;5.57;;;4.20;;
58366;SDS011;57745;42.524;12.052;2022-10-16T09:30:22;5.28;;;3.70;;
58366;SDS011;57745;42.524;12.052;2022-10-16T09:32:52;5.47;;;4.00;;
58366;SDS011;57745;42.524;12.052;2022-10-16T09:35:27;6.00;;;4.20;;
58366;SDS011;57745;42.524;12.052;2022-10-16T09:38:00;5.55;;;3.70;;
58366;SDS011;57745;42.524;12.052;2022-10-16T09:45:43;4.90;;;3.47;;
58366;SDS011;57745;42.524;12.052;2022-10-16T09:48:20;5.88;;;3.97;;
58366;SDS011;57745;42.524;12.052;2022-10-16T09:50:55;5.53;;;3.70;;
58366;SDS011;57745;42.524;12.052;2022-10-16T09:53:22;5.63;;;3.40;;
58366;SDS011;57745;42.524;12.052;2022-10-16T09:55:51;6.30;;;3.63;;
58366;SDS011;57745;42.524;12.052;2022-10-16T09:58:18;5.78;;;3.47;;
58366;SDS011;57745;42.524;12.052;2022-10-16T10:00:50;7.88;;;3.53;;
58366;SDS011;57745;42.524;12.052;2022-10-16T10:03:34;6.88;;;3.80;;
58366;SDS011;57745;42.524;12.052;2022-10-16T10:06:13;6.47;;;3.28;;
58366;SDS011;57745;42.524;12.052;2022-10-16T10:08:52;6.00;;;3.22;;
58366;SDS011;57745;42.524;12.052;2022-10-16T10:11:42;7.97;;;3.80;;
58366;SDS011;57745;42.524;12.052;2022-10-16T10:14:21;4.30;;;3.40;;
58366;SDS011;57745;42.524;12.052;2022-10-16T10:16:47;8.57;;;3.45;;
58366;SDS011;57745;42.524;12.052;2022-10-16T10:19:17;7.82;;;3.30;;
58366;SDS011;57745;42.524;12.052;2022-10-16T10:21:44;7.68;;;3.53;;
58366;SDS011;57745;42.524;12.052;2022-10-16T10:24:12;13.55;;;3.55;;
58366;SDS011;57745;42.524;12.052;2022-10-16T10:34:51;6.35;;;3.22;;
58366;SDS011;57745;42.524;12.052;2022-10-16T10:39:55;4.45;;;3.13;;
58366;SDS011;57745;42.524;12.052;2022-10-16T10:45:24;6.07;;;3.03;;
58366;SDS011;57745;42.524;12.052;2022-10-16T10:47:59;6.13;;;3.30;;
58366;SDS011;57745;42.524;12.052;2022-10-16T10:50:43;5.43;;;2.75;;
58366;SDS011;57745;42.524;12.052;2022-10-16T11:02:00;4.70;;;3.00;;
58366;SDS011;57745;42.524;12.052;2022-10-16T11:07:36;4.25;;;2.67;;
58366;SDS011;57745;42.524;12.052;2022-10-16T11:10:13;4.47;;;2.80;;
58366;SDS011;57745;42.524;12.052;2022-10-16T11:13:03;5.65;;;2.53;;
58366;SDS011;57745;42.524;12.052;2022-10-16T11:15:53;5.00;;;2.63;;
58366;SDS011;57745;42.524;12.052;2022-10-16T11:18:29;4.15;;;2.58;;
58366;SDS011;57745;42.524;12.052;2022-10-16T11:21:05;3.70;;;2.50;;
58366;SDS011;57745;42.524;12.052;2022-10-16T11:26:26;3.25;;;2.20;;
58366;SDS011;57745;42.524;12.052;2022-10-16T11:28:58;4.07;;;2.13;;
58366;SDS011;57745;42.524;12.052;2022-10-16T11:39:30;3.30;;;2.30;;
58366;SDS011;57745;42.524;12.052;2022-10-16T11:44:27;3.47;;;2.30;;
58366;SDS011;57745;42.524;12.052;2022-10-16T11:46:59;4.47;;;2.08;;
58366;SDS011;57745;42.524;12.052;2022-10-16T11:49:34;3.00;;;2.05;;
58366;SDS011;57745;42.524;12.052;2022-10-16T11:52:06;2.80;;;2.00;;
58366;SDS011;57745;42.524;12.052;2022-10-16T11:57:12;3.90;;;2.00;;
58366;SDS011;57745;42.524;12.052;2022-10-16T12:00:09;2.55;;;1.88;;
58366;SDS011;57745;42.524;12.052;2022-10-16T12:08:29;2.70;;;1.70;;
58366;SDS011;57745;42.524;12.052;2022-10-16T12:11:06;4.00;;;2.05;;
58366;SDS011;57745;42.524;12.052;2022-10-16T12:13:47;2.70;;;1.90;;
58366;SDS011;57745;42.524;12.052;2022-10-16T12:18:44;2.70;;;2.05;;
58366;SDS011;57745;42.524;12.052;2022-10-16T12:21:11;3.03;;;1.83;;
58366;SDS011;57745;42.524;12.052;2022-10-16T12:26:14;2.60;;;1.85;;
58366;SDS011;57745;42.524;12.052;2022-10-16T12:31:52;2.13;;;1.63;;
58366;SDS011;57745;42.524;12.052;2022-10-16T12:34:25;2.42;;;1.83;;
58366;SDS011;57745;42.524;12.052;2022-10-16T12:37:13;2.17;;;1.70;;
58366;SDS011;57745;42.524;12.052;2022-10-16T12:39:46;3.97;;;1.88;;
58366;SDS011;57745;42.524;12.052;2022-10-16T12:42:23;2.60;;;1.67;;
58366;SDS011;57745;42.524;12.052;2022-10-16T12:44:49;2.97;;;1.77;;
58366;SDS011;57745;42.524;12.052;2022-10-16T12:47:57;2.05;;;1.50;;
58366;SDS011;57745;42.524;12.052;2022-10-16T12:50:27;2.78;;;1.70;;
58366;SDS011;57745;42.524;12.052;2022-10-16T12:52:53;1.60;;;1.48;;
58366;SDS011;57745;42.524;12.052;2022-10-16T12:55:19;1.90;;;1.35;;
58366;SDS011;57745;42.524;12.052;2022-10-16T13:00:48;2.20;;;1.27;;
58366;SDS011;57745;42.524;12.052;2022-10-16T13:03:41;2.40;;;1.40;;
58366;SDS011;57745;42.524;12.052;2022-10-16T13:09:07;3.58;;;1.73;;
58366;SDS011;57745;42.524;12.052;2022-10-16T13:17:20;3.05;;;1.80;;
58366;SDS011;57745;42.524;12.052;2022-10-16T13:20:02;4.35;;;1.38;;
58366;SDS011;57745;42.524;12.052;2022-10-16T13:30:33;1.97;;;1.40;;
58366;SDS011;57745;42.524;12.052;2022-10-16T13:33:07;3.15;;;1.40;;
58366;SDS011;57745;42.524;12.052;2022-10-16T13:35:58;1.92;;;1.20;;
58366;SDS011;57745;42.524;12.052;2022-10-16T13:38:25;3.88;;;1.40;;
58366;SDS011;57745;42.524;12.052;2022-10-16T13:40:59;2.78;;;1.55;;
58366;SDS011;57745;42.524;12.052;2022-10-16T13:46:14;7.72;;;1.92;;
58366;SDS011;57745;42.524;12.052;2022-10-16T13:48:43;3.10;;;1.35;;
58366;SDS011;57745;42.524;12.052;2022-10-16T13:51:13;11.70;;;2.25;;
58366;SDS011;57745;42.524;12.052;2022-10-16T13:53:40;6.78;;;1.80;;
58366;SDS011;57745;42.524;12.052;2022-10-16T13:56:09;3.90;;;1.33;;
58366;SDS011;57745;42.524;12.052;2022-10-16T13:58:38;5.80;;;1.65;;
58366;SDS011;57745;42.524;12.052;2022-10-16T14:01:05;9.70;;;1.75;;
58366;SDS011;57745;42.524;12.052;2022-10-16T14:03:41;5.90;;;1.30;;
58366;SDS011;57745;42.524;12.052;2022-10-16T14:06:11;6.85;;;1.48;;
58366;SDS011;57745;42.524;12.052;2022-10-16T14:08:44;7.32;;;1.60;;
58366;SDS011;57745;42.524;12.052;2022-10-16T14:11:19;4.57;;;2.13;;
58366;SDS011;57745;42.524;12.052;2022-10-16T14:13:49;6.97;;;1.85;;
58366;SDS011;57745;42.524;12.052;2022-10-16T14:16:17;6.93;;;1.63;;
58366;SDS011;57745;42.524;12.052;2022-10-16T14:19:02;5.25;;;1.30;;
58366;SDS011;57745;42.524;12.052;2022-10-16T14:21:36;7.13;;;2.10;;
58366;SDS011;57745;42.524;12.052;2022-10-16T14:26:56;6.95;;;1.45;;
58366;SDS011;57745;42.524;12.052;2022-10-16T14:29:23;6.50;;;1.50;;
58366;SDS011;57745;42.524;12.052;2022-10-16T14:32:22;4.50;;;1.48;;
58366;SDS011;57745;42.524;12.052;2022-10-16T14:34:53;7.57;;;2.33;;
58366;SDS011;57745;42.524;12.052;2022-10-16T14:37:27;5.35;;;1.42;;
58366;SDS011;57745;42.524;12.052;2022-10-16T14:39:55;4.28;;;1.20;;
58366;SDS011;57745;42.524;12.052;2022-10-16T14:42:22;7.28;;;1.50;;
58366;SDS011;57745;42.524;12.052;2022-10-16T14:44:50;3.08;;;1.30;;
58366;SDS011;57745;42.524;12.052;2022-10-16T14:47:19;5.70;;;1.83;;
58366;SDS011;57745;42.524;12.052;2022-10-16T14:49:50;7.55;;;1.48;;
58366;SDS011;57745;42.524;12.052;2022-10-16T14:52:18;4.00;;;1.65;;
58366;SDS011;57745;42.524;12.052;2022-10-16T14:54:48;3.20;;;1.50;;
58366;SDS011;57745;42.524;12.052;2022-10-16T14:57:17;4.97;;;2.22;;
58366;SDS011;57745;42.524;12.052;2022-10-16T14:59:46;2.65;;;1.45;;
58366;SDS011;57745;42.524;12.052;2022-10-16T15:04:41;5.03;;;1.70;;
58366;SDS011;57745;42.524;12.052;2022-10-16T15:07:07;4.50;;;1.52;;
58366;SDS011;57745;42.524;12.052;2022-10-16T15:09:33;2.47;;;1.10;;
58366;SDS011;57745;42.524;12.052;2022-10-16T15:11:58;4.53;;;1.30;;
58366;SDS011;57745;42.524;12.052;2022-10-16T15:14:24;1.92;;;0.82;;
58366;SDS011;57745;42.524;12.052;2022-10-16T15:16:49;3.35;;;1.63;;
58366;SDS011;57745;42.524;12.052;2022-10-16T15:19:15;2.67;;;1.33;;
58366;SDS011;57745;42.524;12.052;2022-10-16T15:21:40;2.47;;;1.33;;
58366;SDS011;57745;42.524;12.052;2022-10-16T15:24:13;2.85;;;1.10;;
58366;SDS011;57745;42.524;12.052;2022-10-16T15:26:39;2.13;;;1.30;;
58366;SDS011;57745;42.524;12.052;2022-10-16T15:29:05;2.67;;;1.02;;
58366;SDS011;57745;42.524;12.052;2022-10-16T15:31:31;2.10;;;1.10;;
58366;SDS011;57745;42.524;12.052;2022-10-16T15:33:57;3.00;;;1.20;;
58366;SDS011;57745;42.524;12.052;2022-10-16T15:36:33;2.42;;;0.98;;
58366;SDS011;57745;42.524;12.052;2022-10-16T15:39:02;2.57;;;0.97;;
58366;SDS011;57745;42.524;12.052;2022-10-16T15:41:29;3.30;;;1.38;;
58366;SDS011;57745;42.524;12.052;2022-10-16T15:43:54;3.00;;;1.27;;
58366;SDS011;57745;42.524;12.052;2022-10-16T15:46:20;1.92;;;1.17;;
58366;SDS011;57745;42.524;12.052;2022-10-16T15:48:49;3.03;;;1.50;;
58366;SDS011;57745;42.524;12.052;2022-10-16T15:51:15;3.85;;;1.20;;
58366;SDS011;57745;42.524;12.052;2022-10-16T15:53:41;1.73;;;1.20;;
58366;SDS011;57745;42.524;12.052;2022-10-16T15:56:08;2.95;;;1.35;;
58366;SDS011;57745;42.524;12.052;2022-10-16T15:58:35;3.65;;;1.40;;
58366;SDS011;57745;42.524;12.052;2022-10-16T16:01:02;3.95;;;1.05;;
58366;SDS011;57745;42.524;12.052;2022-10-16T16:03:29;3.05;;;1.30;;
58366;SDS011;57745;42.524;12.052;2022-10-16T16:05:56;2.22;;;0.90;;
58366;SDS011;57745;42.524;12.052;2022-10-16T16:08:24;2.00;;;1.17;;
58366;SDS011;57745;42.524;12.052;2022-10-16T16:11:01;1.73;;;0.95;;
58366;SDS011;57745;42.524;12.052;2022-10-16T16:13:35;2.75;;;1.10;;
58366;SDS011;57745;42.524;12.052;2022-10-16T16:16:05;1.15;;;1.00;;
58366;SDS011;57745;42.524;12.052;2022-10-16T16:18:32;3.17;;;0.98;;
58366;SDS011;57745;42.524;12.052;2022-10-16T16:20:58;1.33;;;1.00;;
58366;SDS011;57745;42.524;12.052;2022-10-16T16:23:23;2.85;;;1.20;;
58366;SDS011;57745;42.524;12.052;2022-10-16T16:28:38;2.58;;;1.00;;
58366;SDS011;57745;42.524;12.052;2022-10-16T16:31:10;3.80;;;1.30;;
58366;SDS011;57745;42.524;12.052;2022-10-16T16:33:35;2.47;;;1.20;;
58366;SDS011;57745;42.524;12.052;2022-10-16T16:36:02;2.67;;;1.02;;
58366;SDS011;57745;42.524;12.052;2022-10-16T16:38:28;3.88;;;1.02;;
58366;SDS011;57745;42.524;12.052;2022-10-16T16:40:54;3.33;;;1.35;;
58366;SDS011;57745;42.524;12.052;2022-10-16T16:43:25;1.90;;;1.10;;
58366;SDS011;57745;42.524;12.052;2022-10-16T16:45:52;3.55;;;1.17;;
58366;SDS011;57745;42.524;12.052;2022-10-16T16:48:18;3.55;;;1.27;;
58366;SDS011;57745;42.524;12.052;2022-10-16T16:50:44;3.13;;;1.27;;
58366;SDS011;57745;42.524;12.052;2022-10-16T16:53:09;2.85;;;1.00;;